sensor_id;sensor_type;location;lat;lon;timestamp;P1;durP1;ratioP1;P2;durP2;ratioP2
6436;SDS011;3251;53.550;9.918;2023-06-24T00:02:16;11.27;;;9.03;;
6436;SDS011;3251;53.550;9.918;2023-06-24T00:04:43;12.37;;;9.23;;
6436;SDS011;3251;53.550;9.918;2023-06-24T00:07:09;12.13;;;9.87;;
6436;SDS011;3251;53.550;9.918;2023-06-24T00:09:35;11.90;;;10.70;;
6436;SDS011;3251;53.550;9.918;2023-06-24T00:12:01;15.50;;;10.27;;
6436;SDS011;3251;53.550;9.918;2023-06-24T00:14:28;13.33;;;9.57;;
6436;SDS011;3251;53.550;9.918;2023-06-24T00:16:54;12.83;;;10.03;;
6436;SDS011;3251;53.550;9.918;2023-06-24T00:19:24;16.87;;;10.77;;
6436;SDS011;3251;53.550;9.918;2023-06-24T00:21:51;14.33;;;10.40;;
6436;SDS011;3251;53.550;9.918;2023-06-24T00:24:18;12.90;;;10.20;;
6436;SDS011;3251;53.550;9.918;2023-06-24T00:26:47;14.97;;;9.07;;
6436;SDS011;3251;53.550;9.918;2023-06-24T00:29:14;16.27;;;10.00;;
6436;SDS011;3251;53.550;9.918;2023-06-24T00:31:42;10.90;;;9.30;;
6436;SDS011;3251;53.550;9.918;2023-06-24T00:34:09;11.50;;;10.20;;
6436;SDS011;3251;53.550;9.918;2023-06-24T00:36:35;14.30;;;10.03;;
6436;SDS011;3251;53.550;9.918;2023-06-24T00:39:02;14.77;;;10.97;;
6436;SDS011;3251;53.550;9.918;2023-06-24T00:41:29;15.33;;;10.63;;
6436;SDS011;3251;53.550;9.918;2023-06-24T00:43:55;21.53;;;9.07;;
6436;SDS011;3251;53.550;9.918;2023-06-24T00:46:26;11.27;;;10.10;;
6436;SDS011;3251;53.550;9.918;2023-06-24T00:48:54;14.33;;;9.90;;
6436;SDS011;3251;53.550;9.918;2023-06-24T00:51:20;10.70;;;9.70;;
6436;SDS011;3251;53.550;9.918;2023-06-24T00:53:52;15.17;;;10.53;;
6436;SDS011;3251;53.550;9.918;2023-06-24T00:56:19;11.20;;;10.10;;
6436;SDS011;3251;53.550;9.918;2023-06-24T00:58:47;12.50;;;9.80;;
6436;SDS011;3251;53.550;9.918;2023-06-24T01:01:14;14.23;;;10.40;;
6436;SDS011;3251;53.550;9.918;2023-06-24T01:03:40;13.77;;;10.53;;
6436;SDS011;3251;53.550;9.918;2023-06-24T01:06:08;16.13;;;11.20;;
6436;SDS011;3251;53.550;9.918;2023-06-24T01:08:35;13.97;;;10.80;;
6436;SDS011;3251;53.550;9.918;2023-06-24T01:11:02;12.43;;;9.57;;
6436;SDS011;3251;53.550;9.918;2023-06-24T01:13:28;19.43;;;11.13;;
6436;SDS011;3251;53.550;9.918;2023-06-24T01:15:55;16.23;;;10.43;;
6436;SDS011;3251;53.550;9.918;2023-06-24T01:18:24;13.27;;;9.87;;
6436;SDS011;3251;53.550;9.918;2023-06-24T01:21:29;11.90;;;10.00;;
6436;SDS011;3251;53.550;9.918;2023-06-24T01:26:44;17.83;;;10.80;;
6436;SDS011;3251;53.550;9.918;2023-06-24T01:34:28;13.87;;;11.10;;
6436;SDS011;3251;53.550;9.918;2023-06-24T01:36:57;22.80;;;12.47;;
6436;SDS011;3251;53.550;9.918;2023-06-24T01:39:26;13.10;;;11.77;;
6436;SDS011;3251;53.550;9.918;2023-06-24T01:41:55;14.37;;;11.30;;
6436;SDS011;3251;53.550;9.918;2023-06-24T01:44:22;14.83;;;13.03;;
6436;SDS011;3251;53.550;9.918;2023-06-24T01:46:48;18.97;;;12.87;;
6436;SDS011;3251;53.550;9.918;2023-06-24T01:49:16;14.53;;;12.93;;
6436;SDS011;3251;53.550;9.918;2023-06-24T01:51:44;22.90;;;12.60;;
6436;SDS011;3251;53.550;9.918;2023-06-24T01:54:15;15.00;;;11.83;;
6436;SDS011;3251;53.550;9.918;2023-06-24T06:28:44;8.33;;;6.27;;
6436;SDS011;3251;53.550;9.918;2023-06-24T06:31:12;7.13;;;6.60;;
6436;SDS011;3251;53.550;9.918;2023-06-24T06:33:38;9.80;;;6.67;;
6436;SDS011;3251;53.550;9.918;2023-06-24T06:36:05;7.83;;;5.87;;
6436;SDS011;3251;53.550;9.918;2023-06-24T06:38:32;6.00;;;5.50;;
6436;SDS011;3251;53.550;9.918;2023-06-24T06:40:59;11.33;;;5.60;;
6436;SDS011;3251;53.550;9.918;2023-06-24T06:43:25;6.43;;;5.83;;
6436;SDS011;3251;53.550;9.918;2023-06-24T06:45:51;8.43;;;6.77;;
6436;SDS011;3251;53.550;9.918;2023-06-24T06:48:17;9.27;;;6.30;;
6436;SDS011;3251;53.550;9.918;2023-06-24T06:50:44;9.00;;;5.90;;
6436;SDS011;3251;53.550;9.918;2023-06-24T06:53:10;6.53;;;5.90;;
6436;SDS011;3251;53.550;9.918;2023-06-24T06:55:36;6.80;;;5.30;;
6436;SDS011;3251;53.550;9.918;2023-06-24T06:58:04;7.47;;;5.17;;
6436;SDS011;3251;53.550;9.918;2023-06-24T07:00:30;5.20;;;4.70;;
6436;SDS011;3251;53.550;9.918;2023-06-24T07:02:56;4.90;;;4.67;;
6436;SDS011;3251;53.550;9.918;2023-06-24T07:05:22;5.83;;;5.17;;
6436;SDS011;3251;53.550;9.918;2023-06-24T07:07:49;7.20;;;5.47;;
6436;SDS011;3251;53.550;9.918;2023-06-24T07:10:15;7.67;;;5.17;;
6436;SDS011;3251;53.550;9.918;2023-06-24T07:12:42;9.70;;;6.80;;
6436;SDS011;3251;53.550;9.918;2023-06-24T07:15:09;7.17;;;5.23;;
6436;SDS011;3251;53.550;9.918;2023-06-24T07:17:35;4.50;;;4.10;;
6436;SDS011;3251;53.550;9.918;2023-06-24T07:20:02;6.13;;;4.57;;
6436;SDS011;3251;53.550;9.918;2023-06-24T07:22:28;4.87;;;4.47;;
6436;SDS011;3251;53.550;9.918;2023-06-24T07:24:56;5.27;;;4.27;;
6436;SDS011;3251;53.550;9.918;2023-06-24T07:27:22;5.50;;;3.57;;
6436;SDS011;3251;53.550;9.918;2023-06-24T07:29:49;5.70;;;3.90;;
6436;SDS011;3251;53.550;9.918;2023-06-24T07:32:15;3.93;;;3.50;;
6436;SDS011;3251;53.550;9.918;2023-06-24T07:34:41;3.70;;;3.40;;
6436;SDS011;3251;53.550;9.918;2023-06-24T07:37:07;7.23;;;2.90;;
6436;SDS011;3251;53.550;9.918;2023-06-24T07:39:33;3.03;;;2.80;;
6436;SDS011;3251;53.550;9.918;2023-06-24T07:41:59;3.37;;;3.07;;
6436;SDS011;3251;53.550;9.918;2023-06-24T07:44:25;8.63;;;3.60;;
6436;SDS011;3251;53.550;9.918;2023-06-24T07:46:51;3.63;;;3.17;;
6436;SDS011;3251;53.550;9.918;2023-06-24T07:49:18;7.70;;;2.93;;
6436;SDS011;3251;53.550;9.918;2023-06-24T07:51:44;4.87;;;2.77;;
6436;SDS011;3251;53.550;9.918;2023-06-24T07:54:10;4.90;;;2.70;;
6436;SDS011;3251;53.550;9.918;2023-06-24T07:56:36;3.67;;;2.40;;
6436;SDS011;3251;53.550;9.918;2023-06-24T07:59:02;2.87;;;2.70;;
6436;SDS011;3251;53.550;9.918;2023-06-24T08:01:28;4.40;;;2.57;;
6436;SDS011;3251;53.550;9.918;2023-06-24T08:03:55;3.20;;;2.70;;
6436;SDS011;3251;53.550;9.918;2023-06-24T08:06:21;5.23;;;3.20;;
6436;SDS011;3251;53.550;9.918;2023-06-24T08:08:47;2.50;;;2.40;;
6436;SDS011;3251;53.550;9.918;2023-06-24T08:11:13;2.63;;;2.43;;
6436;SDS011;3251;53.550;9.918;2023-06-24T08:13:39;3.03;;;2.70;;
6436;SDS011;3251;53.550;9.918;2023-06-24T08:16:05;7.80;;;3.30;;
6436;SDS011;3251;53.550;9.918;2023-06-24T08:18:31;4.87;;;3.20;;
6436;SDS011;3251;53.550;9.918;2023-06-24T08:20:58;3.63;;;3.33;;
6436;SDS011;3251;53.550;9.918;2023-06-24T08:23:25;3.73;;;3.37;;
6436;SDS011;3251;53.550;9.918;2023-06-24T08:25:51;3.70;;;3.33;;
6436;SDS011;3251;53.550;9.918;2023-06-24T08:28:17;3.50;;;3.20;;
6436;SDS011;3251;53.550;9.918;2023-06-24T08:30:43;2.80;;;2.60;;
6436;SDS011;3251;53.550;9.918;2023-06-24T08:33:09;7.67;;;2.77;;
6436;SDS011;3251;53.550;9.918;2023-06-24T08:35:35;2.70;;;2.30;;
6436;SDS011;3251;53.550;9.918;2023-06-24T08:38:01;2.73;;;2.00;;
6436;SDS011;3251;53.550;9.918;2023-06-24T08:40:27;2.80;;;2.30;;
6436;SDS011;3251;53.550;9.918;2023-06-24T08:42:54;4.10;;;2.10;;
6436;SDS011;3251;53.550;9.918;2023-06-24T08:45:20;2.57;;;2.10;;
6436;SDS011;3251;53.550;9.918;2023-06-24T08:47:47;4.17;;;2.97;;
6436;SDS011;3251;53.550;9.918;2023-06-24T08:50:15;4.20;;;1.83;;
6436;SDS011;3251;53.550;9.918;2023-06-24T08:52:42;2.53;;;2.20;;
6436;SDS011;3251;53.550;9.918;2023-06-24T08:55:10;2.40;;;2.20;;
6436;SDS011;3251;53.550;9.918;2023-06-24T08:57:36;8.23;;;2.43;;
6436;SDS011;3251;53.550;9.918;2023-06-24T09:00:03;2.10;;;1.90;;
6436;SDS011;3251;53.550;9.918;2023-06-24T09:02:30;2.40;;;2.23;;
6436;SDS011;3251;53.550;9.918;2023-06-24T09:04:58;6.20;;;2.67;;
6436;SDS011;3251;53.550;9.918;2023-06-24T09:07:27;3.97;;;2.63;;
6436;SDS011;3251;53.550;9.918;2023-06-24T09:09:53;4.33;;;2.80;;
6436;SDS011;3251;53.550;9.918;2023-06-24T09:12:20;3.73;;;1.97;;
6436;SDS011;3251;53.550;9.918;2023-06-24T09:14:49;6.10;;;2.77;;
6436;SDS011;3251;53.550;9.918;2023-06-24T09:17:15;3.30;;;2.33;;
6436;SDS011;3251;53.550;9.918;2023-06-24T09:19:42;3.90;;;2.20;;
6436;SDS011;3251;53.550;9.918;2023-06-24T09:22:08;4.43;;;2.77;;
6436;SDS011;3251;53.550;9.918;2023-06-24T09:24:42;4.27;;;2.87;;
6436;SDS011;3251;53.550;9.918;2023-06-24T09:27:12;4.73;;;2.23;;
6436;SDS011;3251;53.550;9.918;2023-06-24T09:29:39;3.20;;;2.90;;
6436;SDS011;3251;53.550;9.918;2023-06-24T09:32:06;4.10;;;2.63;;
6436;SDS011;3251;53.550;9.918;2023-06-24T09:34:32;9.10;;;2.20;;
6436;SDS011;3251;53.550;9.918;2023-06-24T09:36:59;2.17;;;2.00;;
6436;SDS011;3251;53.550;9.918;2023-06-24T09:39:25;2.67;;;2.30;;
6436;SDS011;3251;53.550;9.918;2023-06-24T09:41:56;2.13;;;2.03;;
6436;SDS011;3251;53.550;9.918;2023-06-24T09:44:22;6.10;;;3.27;;
6436;SDS011;3251;53.550;9.918;2023-06-24T09:46:48;2.83;;;2.50;;
6436;SDS011;3251;53.550;9.918;2023-06-24T09:49:15;2.73;;;2.60;;
6436;SDS011;3251;53.550;9.918;2023-06-24T09:51:43;3.40;;;3.20;;
6436;SDS011;3251;53.550;9.918;2023-06-24T09:54:10;2.83;;;2.53;;
6436;SDS011;3251;53.550;9.918;2023-06-24T09:56:37;3.27;;;3.07;;
6436;SDS011;3251;53.550;9.918;2023-06-24T09:59:05;4.60;;;3.10;;
6436;SDS011;3251;53.550;9.918;2023-06-24T10:01:32;4.83;;;3.03;;
6436;SDS011;3251;53.550;9.918;2023-06-24T10:04:01;2.63;;;2.43;;
6436;SDS011;3251;53.550;9.918;2023-06-24T10:06:28;3.70;;;3.20;;
6436;SDS011;3251;53.550;9.918;2023-06-24T10:08:54;8.80;;;2.73;;
6436;SDS011;3251;53.550;9.918;2023-06-24T10:11:21;4.50;;;3.27;;
6436;SDS011;3251;53.550;9.918;2023-06-24T10:13:47;3.90;;;3.70;;
6436;SDS011;3251;53.550;9.918;2023-06-24T10:16:13;4.53;;;4.00;;
6436;SDS011;3251;53.550;9.918;2023-06-24T10:18:43;4.23;;;3.33;;
6436;SDS011;3251;53.550;9.918;2023-06-24T10:21:10;4.93;;;4.33;;
6436;SDS011;3251;53.550;9.918;2023-06-24T10:26:10;3.77;;;3.07;;
6436;SDS011;3251;53.550;9.918;2023-06-24T10:31:39;4.17;;;3.87;;
6436;SDS011;3251;53.550;9.918;2023-06-24T10:34:22;6.00;;;4.70;;
6436;SDS011;3251;53.550;9.918;2023-06-24T10:39:39;4.07;;;3.60;;
6436;SDS011;3251;53.550;9.918;2023-06-24T10:44:51;4.10;;;3.80;;
6436;SDS011;3251;53.550;9.918;2023-06-24T10:47:17;4.80;;;4.13;;
6436;SDS011;3251;53.550;9.918;2023-06-24T10:49:43;9.00;;;4.43;;
6436;SDS011;3251;53.550;9.918;2023-06-24T10:52:10;5.00;;;4.57;;
6436;SDS011;3251;53.550;9.918;2023-06-24T10:54:39;4.90;;;4.50;;
6436;SDS011;3251;53.550;9.918;2023-06-24T10:57:06;4.87;;;4.33;;
6436;SDS011;3251;53.550;9.918;2023-06-24T10:59:35;6.23;;;5.20;;
6436;SDS011;3251;53.550;9.918;2023-06-24T11:02:01;10.03;;;4.20;;
6436;SDS011;3251;53.550;9.918;2023-06-24T11:04:28;8.83;;;4.20;;
6436;SDS011;3251;53.550;9.918;2023-06-24T11:07:00;6.40;;;4.73;;
6436;SDS011;3251;53.550;9.918;2023-06-24T11:09:27;4.63;;;4.30;;
6436;SDS011;3251;53.550;9.918;2023-06-24T11:11:53;5.70;;;4.73;;
6436;SDS011;3251;53.550;9.918;2023-06-24T11:14:19;6.20;;;5.60;;
6436;SDS011;3251;53.550;9.918;2023-06-24T11:16:46;6.23;;;4.17;;
6436;SDS011;3251;53.550;9.918;2023-06-24T11:19:15;8.63;;;6.03;;
6436;SDS011;3251;53.550;9.918;2023-06-24T11:21:41;6.13;;;5.40;;
6436;SDS011;3251;53.550;9.918;2023-06-24T11:24:07;7.20;;;5.57;;
6436;SDS011;3251;53.550;9.918;2023-06-24T11:26:36;9.63;;;6.03;;
6436;SDS011;3251;53.550;9.918;2023-06-24T11:29:09;7.00;;;5.00;;
6436;SDS011;3251;53.550;9.918;2023-06-24T11:31:36;5.50;;;5.00;;
6436;SDS011;3251;53.550;9.918;2023-06-24T11:34:03;6.43;;;5.90;;
6436;SDS011;3251;53.550;9.918;2023-06-24T11:36:29;5.40;;;4.80;;
6436;SDS011;3251;53.550;9.918;2023-06-24T11:39:19;6.20;;;5.50;;
6436;SDS011;3251;53.550;9.918;2023-06-24T11:41:44;5.70;;;5.20;;
6436;SDS011;3251;53.550;9.918;2023-06-24T11:44:11;9.63;;;4.83;;
6436;SDS011;3251;53.550;9.918;2023-06-24T11:46:37;8.10;;;5.50;;
6436;SDS011;3251;53.550;9.918;2023-06-24T11:49:09;4.43;;;4.23;;
6436;SDS011;3251;53.550;9.918;2023-06-24T11:51:35;4.37;;;4.07;;
6436;SDS011;3251;53.550;9.918;2023-06-24T11:54:03;4.97;;;4.67;;
6436;SDS011;3251;53.550;9.918;2023-06-24T11:59:44;5.80;;;5.40;;
6436;SDS011;3251;53.550;9.918;2023-06-24T12:01:52;6.80;;;5.37;;
6436;SDS011;3251;53.550;9.918;2023-06-24T12:04:19;5.37;;;5.07;;
6436;SDS011;3251;53.550;9.918;2023-06-24T12:06:45;7.30;;;4.87;;
6436;SDS011;3251;53.550;9.918;2023-06-24T12:09:11;5.57;;;5.07;;
6436;SDS011;3251;53.550;9.918;2023-06-24T12:11:38;8.60;;;5.07;;
6436;SDS011;3251;53.550;9.918;2023-06-24T12:14:05;6.40;;;5.27;;
6436;SDS011;3251;53.550;9.918;2023-06-24T12:16:31;6.00;;;5.37;;
6436;SDS011;3251;53.550;9.918;2023-06-24T12:18:57;5.50;;;4.97;;
6436;SDS011;3251;53.550;9.918;2023-06-24T12:21:24;5.30;;;4.33;;
6436;SDS011;3251;53.550;9.918;2023-06-24T12:23:50;5.57;;;5.20;;
6436;SDS011;3251;53.550;9.918;2023-06-24T12:26:16;6.33;;;5.50;;
6436;SDS011;3251;53.550;9.918;2023-06-24T12:28:42;7.33;;;4.20;;
6436;SDS011;3251;53.550;9.918;2023-06-24T12:31:08;5.60;;;4.90;;
6436;SDS011;3251;53.550;9.918;2023-06-24T12:33:34;5.00;;;4.23;;
6436;SDS011;3251;53.550;9.918;2023-06-24T12:36:00;5.30;;;4.90;;
6436;SDS011;3251;53.550;9.918;2023-06-24T12:38:29;7.83;;;5.77;;
6436;SDS011;3251;53.550;9.918;2023-06-24T12:40:56;5.83;;;5.33;;
6436;SDS011;3251;53.550;9.918;2023-06-24T12:43:22;5.60;;;5.20;;
6436;SDS011;3251;53.550;9.918;2023-06-24T12:45:49;5.53;;;4.87;;
6436;SDS011;3251;53.550;9.918;2023-06-24T12:48:16;7.90;;;5.53;;
6436;SDS011;3251;53.550;9.918;2023-06-24T12:50:42;5.93;;;5.17;;
6436;SDS011;3251;53.550;9.918;2023-06-24T12:53:08;6.13;;;5.50;;
6436;SDS011;3251;53.550;9.918;2023-06-24T12:55:39;4.40;;;4.10;;
6436;SDS011;3251;53.550;9.918;2023-06-24T12:58:05;6.00;;;5.40;;
6436;SDS011;3251;53.550;9.918;2023-06-24T13:00:31;7.33;;;5.73;;
6436;SDS011;3251;53.550;9.918;2023-06-24T13:02:57;5.97;;;4.50;;
6436;SDS011;3251;53.550;9.918;2023-06-24T13:05:24;9.13;;;4.63;;
6436;SDS011;3251;53.550;9.918;2023-06-24T13:07:50;5.10;;;4.73;;
6436;SDS011;3251;53.550;9.918;2023-06-24T13:10:16;8.87;;;4.70;;
6436;SDS011;3251;53.550;9.918;2023-06-24T13:12:42;4.53;;;4.13;;
6436;SDS011;3251;53.550;9.918;2023-06-24T13:15:09;4.80;;;4.50;;
6436;SDS011;3251;53.550;9.918;2023-06-24T13:17:35;5.13;;;4.60;;
6436;SDS011;3251;53.550;9.918;2023-06-24T13:20:01;13.53;;;4.50;;
6436;SDS011;3251;53.550;9.918;2023-06-24T13:22:29;4.20;;;3.90;;
6436;SDS011;3251;53.550;9.918;2023-06-24T13:24:56;7.57;;;4.90;;
6436;SDS011;3251;53.550;9.918;2023-06-24T13:27:22;7.70;;;4.67;;
6436;SDS011;3251;53.550;9.918;2023-06-24T13:29:48;4.97;;;4.60;;
6436;SDS011;3251;53.550;9.918;2023-06-24T13:32:14;5.20;;;4.70;;
6436;SDS011;3251;53.550;9.918;2023-06-24T13:34:40;6.13;;;5.20;;
6436;SDS011;3251;53.550;9.918;2023-06-24T13:37:07;6.47;;;5.10;;
6436;SDS011;3251;53.550;9.918;2023-06-24T13:39:33;4.80;;;4.40;;
6436;SDS011;3251;53.550;9.918;2023-06-24T13:41:59;4.93;;;4.53;;
6436;SDS011;3251;53.550;9.918;2023-06-24T13:44:25;6.93;;;5.73;;
6436;SDS011;3251;53.550;9.918;2023-06-24T13:46:52;5.70;;;5.20;;
6436;SDS011;3251;53.550;9.918;2023-06-24T13:49:20;5.10;;;3.70;;
6436;SDS011;3251;53.550;9.918;2023-06-24T13:51:47;5.20;;;4.70;;
6436;SDS011;3251;53.550;9.918;2023-06-24T13:54:13;5.30;;;5.00;;
6436;SDS011;3251;53.550;9.918;2023-06-24T13:56:39;5.93;;;4.20;;
6436;SDS011;3251;53.550;9.918;2023-06-24T13:59:05;5.10;;;4.70;;
6436;SDS011;3251;53.550;9.918;2023-06-24T14:01:31;6.33;;;3.97;;
6436;SDS011;3251;53.550;9.918;2023-06-24T14:03:57;4.30;;;4.10;;
6436;SDS011;3251;53.550;9.918;2023-06-24T14:06:24;5.73;;;4.17;;
6436;SDS011;3251;53.550;9.918;2023-06-24T14:08:50;4.80;;;4.40;;
6436;SDS011;3251;53.550;9.918;2023-06-24T14:11:17;9.37;;;5.97;;
6436;SDS011;3251;53.550;9.918;2023-06-24T14:13:43;6.83;;;4.57;;
6436;SDS011;3251;53.550;9.918;2023-06-24T14:16:10;5.20;;;4.57;;
6436;SDS011;3251;53.550;9.918;2023-06-24T14:18:36;9.40;;;4.40;;
6436;SDS011;3251;53.550;9.918;2023-06-24T14:21:03;6.43;;;5.83;;
6436;SDS011;3251;53.550;9.918;2023-06-24T14:23:30;6.70;;;4.30;;
6436;SDS011;3251;53.550;9.918;2023-06-24T14:25:57;5.13;;;4.60;;
6436;SDS011;3251;53.550;9.918;2023-06-24T14:28:24;6.57;;;5.00;;
6436;SDS011;3251;53.550;9.918;2023-06-24T14:30:50;5.23;;;4.80;;
6436;SDS011;3251;53.550;9.918;2023-06-24T14:33:16;4.77;;;4.27;;
6436;SDS011;3251;53.550;9.918;2023-06-24T14:35:42;4.23;;;4.03;;
6436;SDS011;3251;53.550;9.918;2023-06-24T14:38:08;5.37;;;4.97;;
6436;SDS011;3251;53.550;9.918;2023-06-24T14:40:34;7.07;;;5.00;;
6436;SDS011;3251;53.550;9.918;2023-06-24T14:43:01;3.93;;;3.63;;
6436;SDS011;3251;53.550;9.918;2023-06-24T14:45:27;4.70;;;4.23;;
6436;SDS011;3251;53.550;9.918;2023-06-24T14:47:53;6.27;;;4.40;;
6436;SDS011;3251;53.550;9.918;2023-06-24T14:50:19;8.60;;;4.40;;
6436;SDS011;3251;53.550;9.918;2023-06-24T14:52:45;5.00;;;4.40;;
6436;SDS011;3251;53.550;9.918;2023-06-24T14:55:11;5.70;;;5.00;;
6436;SDS011;3251;53.550;9.918;2023-06-24T14:57:37;4.70;;;4.40;;
6436;SDS011;3251;53.550;9.918;2023-06-24T15:00:06;5.50;;;5.00;;
6436;SDS011;3251;53.550;9.918;2023-06-24T15:02:32;5.07;;;4.63;;
6436;SDS011;3251;53.550;9.918;2023-06-24T15:04:59;7.17;;;5.33;;
6436;SDS011;3251;53.550;9.918;2023-06-24T15:07:28;6.13;;;5.03;;
6436;SDS011;3251;53.550;9.918;2023-06-24T15:09:54;5.13;;;4.73;;
6436;SDS011;3251;53.550;9.918;2023-06-24T15:12:20;6.00;;;5.03;;
6436;SDS011;3251;53.550;9.918;2023-06-24T15:14:46;5.87;;;5.27;;
6436;SDS011;3251;53.550;9.918;2023-06-24T15:17:13;5.47;;;4.80;;
6436;SDS011;3251;53.550;9.918;2023-06-24T15:19:39;5.33;;;4.50;;
6436;SDS011;3251;53.550;9.918;2023-06-24T15:22:06;6.40;;;4.73;;
6436;SDS011;3251;53.550;9.918;2023-06-24T15:24:32;5.30;;;4.80;;
6436;SDS011;3251;53.550;9.918;2023-06-24T15:26:58;6.03;;;4.50;;
6436;SDS011;3251;53.550;9.918;2023-06-24T15:29:25;5.63;;;5.07;;
6436;SDS011;3251;53.550;9.918;2023-06-24T15:31:51;7.97;;;5.03;;
6436;SDS011;3251;53.550;9.918;2023-06-24T15:34:17;4.40;;;4.00;;
6436;SDS011;3251;53.550;9.918;2023-06-24T15:36:43;5.30;;;4.90;;
6436;SDS011;3251;53.550;9.918;2023-06-24T15:39:09;5.90;;;5.40;;
6436;SDS011;3251;53.550;9.918;2023-06-24T15:41:36;4.83;;;4.47;;
6436;SDS011;3251;53.550;9.918;2023-06-24T15:44:05;6.00;;;4.13;;
6436;SDS011;3251;53.550;9.918;2023-06-24T15:46:31;6.33;;;5.57;;
6436;SDS011;3251;53.550;9.918;2023-06-24T15:48:57;5.97;;;4.60;;
6436;SDS011;3251;53.550;9.918;2023-06-24T15:51:23;4.77;;;4.37;;
6436;SDS011;3251;53.550;9.918;2023-06-24T15:53:49;5.30;;;4.90;;
6436;SDS011;3251;53.550;9.918;2023-06-24T15:56:15;10.10;;;6.13;;
6436;SDS011;3251;53.550;9.918;2023-06-24T15:58:41;9.00;;;4.80;;
6436;SDS011;3251;53.550;9.918;2023-06-24T16:01:08;6.20;;;5.70;;
6436;SDS011;3251;53.550;9.918;2023-06-24T16:03:34;10.97;;;5.43;;
6436;SDS011;3251;53.550;9.918;2023-06-24T16:06:00;6.07;;;4.87;;
6436;SDS011;3251;53.550;9.918;2023-06-24T16:08:26;8.77;;;4.27;;
6436;SDS011;3251;53.550;9.918;2023-06-24T16:10:52;5.60;;;5.10;;
6436;SDS011;3251;53.550;9.918;2023-06-24T16:13:18;13.07;;;5.27;;
6436;SDS011;3251;53.550;9.918;2023-06-24T16:15:45;5.97;;;5.07;;
6436;SDS011;3251;53.550;9.918;2023-06-24T16:18:11;4.83;;;4.53;;
6436;SDS011;3251;53.550;9.918;2023-06-24T16:20:37;6.70;;;6.03;;
6436;SDS011;3251;53.550;9.918;2023-06-24T16:23:03;9.20;;;5.70;;
6436;SDS011;3251;53.550;9.918;2023-06-24T16:25:31;5.10;;;4.80;;
6436;SDS011;3251;53.550;9.918;2023-06-24T16:27:57;5.87;;;4.60;;
6436;SDS011;3251;53.550;9.918;2023-06-24T16:30:23;4.97;;;4.60;;
6436;SDS011;3251;53.550;9.918;2023-06-24T16:32:49;7.63;;;6.57;;
6436;SDS011;3251;53.550;9.918;2023-06-24T16:35:16;6.57;;;5.33;;
6436;SDS011;3251;53.550;9.918;2023-06-24T16:37:43;5.40;;;4.90;;
6436;SDS011;3251;53.550;9.918;2023-06-24T16:40:09;6.60;;;5.93;;
6436;SDS011;3251;53.550;9.918;2023-06-24T16:42:35;10.20;;;6.47;;
6436;SDS011;3251;53.550;9.918;2023-06-24T16:45:01;7.30;;;5.30;;
6436;SDS011;3251;53.550;9.918;2023-06-24T16:47:27;5.00;;;4.70;;
6436;SDS011;3251;53.550;9.918;2023-06-24T16:49:53;9.20;;;5.67;;
6436;SDS011;3251;53.550;9.918;2023-06-24T16:52:20;13.70;;;7.20;;
6436;SDS011;3251;53.550;9.918;2023-06-24T16:54:47;54.93;;;15.53;;
6436;SDS011;3251;53.550;9.918;2023-06-24T16:57:13;41.77;;;12.23;;
6436;SDS011;3251;53.550;9.918;2023-06-24T16:59:39;15.33;;;9.73;;
6436;SDS011;3251;53.550;9.918;2023-06-24T17:02:05;40.63;;;13.90;;
6436;SDS011;3251;53.550;9.918;2023-06-24T17:04:31;12.40;;;8.13;;
6436;SDS011;3251;53.550;9.918;2023-06-24T17:06:57;9.87;;;7.53;;
6436;SDS011;3251;53.550;9.918;2023-06-24T17:09:23;9.67;;;6.93;;
6436;SDS011;3251;53.550;9.918;2023-06-24T17:11:49;14.30;;;7.60;;
6436;SDS011;3251;53.550;9.918;2023-06-24T17:14:16;13.50;;;7.13;;
6436;SDS011;3251;53.550;9.918;2023-06-24T17:16:42;7.40;;;6.33;;
6436;SDS011;3251;53.550;9.918;2023-06-24T17:19:08;14.37;;;6.87;;
6436;SDS011;3251;53.550;9.918;2023-06-24T17:21:34;7.30;;;6.70;;
6436;SDS011;3251;53.550;9.918;2023-06-24T17:24:02;7.70;;;7.00;;
6436;SDS011;3251;53.550;9.918;2023-06-24T17:26:28;9.40;;;6.20;;
6436;SDS011;3251;53.550;9.918;2023-06-24T17:28:54;14.43;;;6.73;;
6436;SDS011;3251;53.550;9.918;2023-06-24T17:31:20;6.97;;;6.30;;
6436;SDS011;3251;53.550;9.918;2023-06-24T17:33:47;14.03;;;6.37;;
6436;SDS011;3251;53.550;9.918;2023-06-24T17:36:13;9.10;;;6.97;;
6436;SDS011;3251;53.550;9.918;2023-06-24T17:38:39;8.50;;;6.40;;
6436;SDS011;3251;53.550;9.918;2023-06-24T17:41:05;13.30;;;5.87;;
6436;SDS011;3251;53.550;9.918;2023-06-24T17:43:31;23.60;;;8.70;;
6436;SDS011;3251;53.550;9.918;2023-06-24T17:45:57;19.07;;;8.17;;
6436;SDS011;3251;53.550;9.918;2023-06-24T17:48:23;10.77;;;7.57;;
6436;SDS011;3251;53.550;9.918;2023-06-24T17:50:49;12.83;;;8.10;;
6436;SDS011;3251;53.550;9.918;2023-06-24T17:53:15;19.37;;;8.30;;
6436;SDS011;3251;53.550;9.918;2023-06-24T17:55:42;10.23;;;7.40;;
6436;SDS011;3251;53.550;9.918;2023-06-24T17:58:08;13.33;;;7.33;;
6436;SDS011;3251;53.550;9.918;2023-06-24T18:00:35;12.47;;;6.80;;
6436;SDS011;3251;53.550;9.918;2023-06-24T18:03:07;19.00;;;8.10;;
6436;SDS011;3251;53.550;9.918;2023-06-24T18:05:34;18.20;;;9.40;;
6436;SDS011;3251;53.550;9.918;2023-06-24T18:08:00;17.93;;;9.50;;
6436;SDS011;3251;53.550;9.918;2023-06-24T18:10:26;23.23;;;9.80;;
6436;SDS011;3251;53.550;9.918;2023-06-24T18:12:52;10.27;;;7.40;;
6436;SDS011;3251;53.550;9.918;2023-06-24T18:15:18;21.70;;;8.17;;
6436;SDS011;3251;53.550;9.918;2023-06-24T18:17:44;12.90;;;8.27;;
6436;SDS011;3251;53.550;9.918;2023-06-24T18:20:11;10.83;;;6.90;;
6436;SDS011;3251;53.550;9.918;2023-06-24T18:22:37;6.83;;;6.13;;
6436;SDS011;3251;53.550;9.918;2023-06-24T18:25:04;8.70;;;7.67;;
6436;SDS011;3251;53.550;9.918;2023-06-24T18:27:30;9.03;;;6.60;;
6436;SDS011;3251;53.550;9.918;2023-06-24T18:29:57;11.13;;;7.03;;
6436;SDS011;3251;53.550;9.918;2023-06-24T18:32:23;13.30;;;7.33;;
6436;SDS011;3251;53.550;9.918;2023-06-24T18:34:49;6.47;;;5.87;;
6436;SDS011;3251;53.550;9.918;2023-06-24T18:37:16;9.20;;;7.17;;
6436;SDS011;3251;53.550;9.918;2023-06-24T18:39:42;6.27;;;5.87;;
6436;SDS011;3251;53.550;9.918;2023-06-24T18:42:10;8.73;;;5.70;;
6436;SDS011;3251;53.550;9.918;2023-06-24T18:44:36;9.00;;;5.17;;
6436;SDS011;3251;53.550;9.918;2023-06-24T18:47:03;6.83;;;6.03;;
6436;SDS011;3251;53.550;9.918;2023-06-24T18:49:29;6.97;;;5.67;;
6436;SDS011;3251;53.550;9.918;2023-06-24T18:51:56;11.80;;;5.40;;
6436;SDS011;3251;53.550;9.918;2023-06-24T18:54:22;12.97;;;5.37;;
6436;SDS011;3251;53.550;9.918;2023-06-24T18:56:50;7.63;;;6.10;;
6436;SDS011;3251;53.550;9.918;2023-06-24T18:59:16;12.10;;;5.60;;
6436;SDS011;3251;53.550;9.918;2023-06-24T19:01:42;9.10;;;6.43;;
6436;SDS011;3251;53.550;9.918;2023-06-24T19:04:13;9.50;;;7.10;;
6436;SDS011;3251;53.550;9.918;2023-06-24T19:06:41;9.77;;;5.50;;
6436;SDS011;3251;53.550;9.918;2023-06-24T19:09:08;5.27;;;4.83;;
6436;SDS011;3251;53.550;9.918;2023-06-24T19:11:36;6.00;;;5.50;;
6436;SDS011;3251;53.550;9.918;2023-06-24T19:14:03;7.90;;;5.93;;
6436;SDS011;3251;53.550;9.918;2023-06-24T19:16:29;9.93;;;5.83;;
6436;SDS011;3251;53.550;9.918;2023-06-24T19:18:55;6.53;;;5.90;;
6436;SDS011;3251;53.550;9.918;2023-06-24T19:21:22;6.40;;;5.00;;
6436;SDS011;3251;53.550;9.918;2023-06-24T19:23:48;6.20;;;5.60;;
6436;SDS011;3251;53.550;9.918;2023-06-24T19:26:14;5.77;;;5.40;;
6436;SDS011;3251;53.550;9.918;2023-06-24T19:28:40;8.40;;;6.43;;
6436;SDS011;3251;53.550;9.918;2023-06-24T19:31:06;8.57;;;6.23;;
6436;SDS011;3251;53.550;9.918;2023-06-24T19:33:32;6.67;;;6.00;;
6436;SDS011;3251;53.550;9.918;2023-06-24T19:35:58;6.43;;;5.20;;
6436;SDS011;3251;53.550;9.918;2023-06-24T19:38:24;8.43;;;5.93;;
6436;SDS011;3251;53.550;9.918;2023-06-24T19:40:51;7.57;;;6.90;;
6436;SDS011;3251;53.550;9.918;2023-06-24T19:43:17;5.67;;;5.10;;
6436;SDS011;3251;53.550;9.918;2023-06-24T19:45:43;5.80;;;5.40;;
6436;SDS011;3251;53.550;9.918;2023-06-24T19:48:10;6.43;;;5.17;;
6436;SDS011;3251;53.550;9.918;2023-06-24T19:50:37;5.83;;;5.43;;
6436;SDS011;3251;53.550;9.918;2023-06-24T19:53:03;7.40;;;6.93;;
6436;SDS011;3251;53.550;9.918;2023-06-24T19:55:29;8.80;;;6.03;;
6436;SDS011;3251;53.550;9.918;2023-06-24T19:57:55;8.53;;;6.50;;
6436;SDS011;3251;53.550;9.918;2023-06-24T20:00:21;9.13;;;5.90;;
6436;SDS011;3251;53.550;9.918;2023-06-24T20:02:47;14.60;;;5.77;;